Time;durP1;ratioP1;P1;durP2;ratioP2;P2;SDS_P1;SDS_P2;PMS_P1;PMS_P2;Temp;Humidity;BMP_temperature;BMP_pressure;BME280_temperature;BME280_humidity;BME280_pressure;Samples;Min_cycle;Max_cycle;Signal;HPM_P1;HPM_P2
2023/07/01 00:01:27;;;;;;;;;4.00;3.67;;;;;22.36;56.40;100742.19;5020475;28;45413;-82
2023/07/01 00:03:52;;;;;;;;;3.00;3.00;;;;;22.27;56.35;100736.13;5034966;28;45461;-82
2023/07/01 00:06:19;;;;;;;;;3.00;3.00;;;;;22.24;56.70;100740.59;5036571;28;45386;-82
2023/07/01 00:08:45;;;;;;;;;4.00;4.00;;;;;22.14;56.86;100740.69;5021887;28;46005;-83
2023/07/01 00:11:10;;;;;;;;;3.00;3.00;;;;;22.10;57.24;100746.97;5016749;28;45303;-79
2023/07/01 00:13:36;;;;;;;;;3.33;3.00;;;;;22.01;56.93;100730.25;5015232;28;45432;-80
2023/07/01 00:16:01;;;;;;;;;5.00;4.67;;;;;22.07;56.38;100741.72;5015360;28;45538;-79
2023/07/01 00:18:27;;;;;;;;;3.00;3.00;;;;;22.09;56.72;100734.59;5028510;28;47915;-82
2023/07/01 00:20:54;;;;;;;;;5.00;4.67;;;;;22.07;57.09;100733.72;5018518;28;45541;-83
2023/07/01 00:23:19;;;;;;;;;5.00;4.00;;;;;22.12;56.93;100740.72;5030956;28;45561;-83
2023/07/01 00:25:45;;;;;;;;;4.33;4.33;;;;;22.12;56.96;100731.84;5026563;28;45451;-82
2023/07/01 00:28:11;;;;;;;;;5.00;4.00;;;;;22.02;56.83;100724.03;5016788;28;46059;-83
2023/07/01 00:30:36;;;;;;;;;5.00;4.33;;;;;22.07;57.01;100731.06;5016165;28;45399;-82
2023/07/01 00:33:02;;;;;;;;;4.00;4.00;;;;;22.00;57.04;100720.50;5021988;28;45498;-84
2023/07/01 00:35:28;;;;;;;;;4.67;4.33;;;;;21.96;56.64;100709.91;5027030;28;45288;-83
2023/07/01 00:37:54;;;;;;;;;4.00;3.33;;;;;22.00;56.71;100711.63;5016406;28;45460;-83
2023/07/01 00:40:19;;;;;;;;;3.67;3.00;;;;;21.98;56.48;100710.78;5032090;28;45644;-83
2023/07/01 00:42:45;;;;;;;;;4.33;3.33;;;;;22.02;56.76;100724.03;5014561;28;45586;-83
2023/07/01 00:45:11;;;;;;;;;4.00;4.00;;;;;21.94;56.60;100711.72;5025408;28;45812;-82
2023/07/01 00:47:40;;;;;;;;;4.00;4.00;;;;;22.00;57.17;100717.84;5023192;28;45489;-83
2023/07/01 00:50:10;;;;;;;;;3.33;3.33;;;;;21.96;57.19;100707.25;5032799;28;45941;-82
2023/07/01 00:52:37;;;;;;;;;3.00;3.00;;;;;22.03;56.58;100719.59;5034566;28;45406;-82
2023/07/01 00:55:03;;;;;;;;;4.00;4.00;;;;;21.98;57.27;100711.66;5017430;28;45491;-83
2023/07/01 00:57:28;;;;;;;;;4.33;4.00;;;;;21.96;56.98;100707.25;5014945;28;45649;-83
2023/07/01 00:59:54;;;;;;;;;4.33;4.00;;;;;21.92;57.01;100700.22;5029295;28;45347;-80
2023/07/01 01:02:27;;;;;;;;;3.00;3.00;;;;;21.97;57.10;100709.91;5035751;28;45697;-80
2023/07/01 01:05:01;;;;;;;;;3.00;2.67;;;;;21.95;57.36;100706.38;5036051;28;45531;-82
2023/07/01 01:07:37;;;;;;;;;5.33;4.67;;;;;21.88;57.18;100691.41;5035756;28;46238;-82
2023/07/01 01:10:09;;;;;;;;;3.33;3.33;;;;;21.93;57.13;100707.31;5011608;28;45590;-80
2023/07/01 01:12:37;;;;;;;;;4.00;4.00;;;;;21.94;56.50;100698.44;5025984;28;45504;-81
2023/07/01 01:15:03;;;;;;;;;4.67;4.00;;;;;21.94;56.90;100699.28;5020034;28;45506;-81
2023/07/01 01:17:34;;;;;;;;;4.33;4.00;;;;;21.92;56.97;100694.91;5023116;28;45491;-82
2023/07/01 01:20:13;;;;;;;;;2.67;2.67;;;;;21.90;56.90;100694.94;5029065;28;45354;-79
2023/07/01 01:22:45;;;;;;;;;5.00;3.67;;;;;21.92;56.92;100693.13;5019475;28;45426;-82
2023/07/01 01:25:18;;;;;;;;;4.00;4.00;;;;;21.81;57.09;100681.78;5019690;28;45327;-82
2023/07/01 01:27:44;;;;;;;;;5.00;4.00;;;;;21.83;57.43;100680.84;5029554;28;45631;-82
2023/07/01 01:30:10;;;;;;;;;4.00;3.67;;;;;21.88;57.49;100694.06;5034149;28;45596;-82
2023/07/01 01:32:36;;;;;;;;;4.67;4.00;;;;;21.87;57.42;100686.13;5024601;28;45366;-83
2023/07/01 01:35:06;;;;;;;;;5.00;5.00;;;;;21.85;56.76;100683.50;5035336;28;45209;-82
2023/07/01 01:37:51;;;;;;;;;4.33;4.00;;;;;21.90;56.82;100694.94;5019481;28;45521;-83
2023/07/01 01:40:47;;;;;;;;;4.00;4.00;;;;;21.82;57.13;100673.75;5001234;28;45609;-83
2023/07/01 01:43:42;;;;;;;;;4.00;3.67;;;;;21.87;57.27;100687.00;5016831;28;45351;-82
2023/07/01 01:46:08;;;;;;;;;4.33;3.33;;;;;21.83;57.17;100678.19;5008426;28;46409;-74
2023/07/01 01:48:36;;;;;;;;;4.67;4.67;;;;;21.87;56.94;100679.03;5029615;28;45525;-82
2023/07/01 01:51:04;;;;;;;;;4.00;3.00;;;;;21.85;57.28;100681.69;5032442;28;45288;-82
2023/07/01 01:53:31;;;;;;;;;3.33;3.33;;;;;21.84;57.18;100679.97;5020702;28;45401;-83
2023/07/01 01:55:58;;;;;;;;;5.00;4.00;;;;;21.84;57.04;100679.97;5019409;28;45374;-82
2023/07/01 01:58:25;;;;;;;;;4.00;3.00;;;;;21.85;56.69;100676.38;5034225;28;45727;-82
2023/07/01 02:00:50;;;;;;;;;3.33;3.00;;;;;21.85;57.50;100676.38;5038153;28;45397;-82
2023/07/01 02:03:16;;;;;;;;;3.00;3.00;;;;;21.79;57.29;100664.97;5019938;28;45371;-82
2023/07/01 02:05:41;;;;;;;;;5.00;3.00;;;;;21.82;57.55;100671.09;5030418;28;45506;-83
2023/07/01 02:08:08;;;;;;;;;4.33;3.67;;;;;21.82;57.59;100672.88;5021955;28;47879;-83
2023/07/01 02:10:33;;;;;;;;;4.00;4.00;;;;;21.80;57.31;100666.72;5034022;28;45274;-83
2023/07/01 02:12:59;;;;;;;;;3.00;3.00;;;;;21.75;57.69;100661.47;5018782;28;45489;-82
2023/07/01 02:15:24;;;;;;;;;4.67;4.33;;;;;21.81;57.13;100664.03;5024279;28;45483;-82
2023/07/01 02:17:50;;;;;;;;;4.00;4.00;;;;;21.73;57.82;100657.94;5033419;28;45450;-83
2023/07/01 02:20:16;;;;;;;;;4.00;3.00;;;;;21.78;58.10;100668.50;5036176;28;45359;-83
2023/07/01 02:22:42;;;;;;;;;4.00;4.00;;;;;21.78;57.90;100666.72;5037489;28;45559;-82
2023/07/01 02:25:10;;;;;;;;;4.00;3.67;;;;;;;;5033128;28;45288;-83
2023/07/01 02:27:36;;;;;;;;;3.67;3.00;;;;;21.77;57.89;100664.13;5023697;28;46170;-80
2023/07/01 02:30:03;;;;;;;;;3.33;3.00;;;;;21.78;57.42;100664.06;5029114;28;45388;-83
2023/07/01 02:32:29;;;;;;;;;5.00;4.33;;;;;21.74;57.54;100651.72;5031372;28;45323;-82
2023/07/01 02:34:54;;;;;;;;;4.00;3.67;;;;;21.77;57.38;100661.44;5028460;28;45369;-77
2023/07/01 02:37:20;;;;;;;;;5.00;4.33;;;;;21.70;57.56;100649.13;5022968;28;46464;-82
2023/07/01 02:39:46;;;;;;;;;4.67;3.67;;;;;21.77;57.15;100657.00;5034052;28;45334;-79
2023/07/01 02:42:12;;;;;;;;;5.00;5.00;;;;;;;;5018942;28;45400;-77
2023/07/01 02:44:37;;;;;;;;;5.33;4.00;;;;;21.75;57.19;100660.59;5019224;28;45562;-82
2023/07/01 02:47:03;;;;;;;;;4.00;3.00;;;;;21.71;57.17;100654.44;5033626;28;46078;-82
2023/07/01 02:49:29;;;;;;;;;4.00;3.00;;;;;21.57;56.98;100628.03;5016493;28;45772;-78
2023/07/01 02:51:54;;;;;;;;;5.00;4.00;;;;;21.65;57.53;100644.75;5006620;28;45547;-83
2023/07/01 02:54:20;;;;;;;;;4.00;3.67;;;;;21.62;57.62;100641.25;5028802;28;45582;-80
2023/07/01 02:56:45;;;;;;;;;4.00;4.00;;;;;21.58;58.03;100645.72;5021441;28;46071;-81
2023/07/01 02:59:11;;;;;;;;;5.00;4.00;;;;;21.61;58.48;100648.38;5029585;28;45505;-82
2023/07/01 03:01:37;;;;;;;;;3.00;3.00;;;;;21.59;58.49;100650.16;5017195;28;45847;-82
2023/07/01 03:04:05;;;;;;;;;3.00;2.67;;;;;21.52;58.54;100642.28;5018716;28;45341;-83
2023/07/01 03:06:31;;;;;;;;;4.00;4.00;;;;;21.54;58.05;100652.00;5033194;28;46200;-83
2023/07/01 03:08:56;;;;;;;;;5.33;4.00;;;;;21.55;58.31;100645.78;5023439;28;45590;-83
2023/07/01 03:11:22;;;;;;;;;4.00;4.00;;;;;21.53;58.23;100644.94;5026812;28;45310;-83
2023/07/01 03:13:47;;;;;;;;;4.00;3.00;;;;;21.53;58.01;100650.25;5033513;28;46184;-83
2023/07/01 03:16:13;;;;;;;;;4.00;4.00;;;;;21.52;58.98;100643.16;5025161;28;47291;-79
2023/07/01 03:18:39;;;;;;;;;8.00;4.33;;;;;21.50;58.69;100641.44;5017990;28;45496;-82
2023/07/01 03:21:04;;;;;;;;;5.00;3.00;;;;;21.47;58.47;100633.50;5033024;28;45493;-83
2023/07/01 03:23:31;;;;;;;;;5.00;4.33;;;;;21.50;58.55;100644.09;5001967;28;45540;-83
2023/07/01 03:25:56;;;;;;;;;4.67;4.00;;;;;21.51;58.27;100644.09;5031382;28;45467;-82
2023/07/01 03:28:22;;;;;;;;;5.67;4.00;;;;;21.48;57.64;100638.78;5017601;28;45570;-83
2023/07/01 03:30:48;;;;;;;;;5.33;4.00;;;;;21.49;58.16;100637.91;5017794;28;45375;-82
2023/07/01 03:33:15;;;;;;;;;4.00;4.00;;;;;21.44;58.40;100626.44;5017986;28;45859;-73
2023/07/01 03:35:41;;;;;;;;;3.00;3.00;;;;;21.48;58.38;100633.47;5019662;28;46053;-82
2023/07/01 03:38:06;;;;;;;;;5.00;4.00;;;;;21.41;58.57;100626.47;5029276;28;45458;-82
2023/07/01 03:40:32;;;;;;;;;5.00;4.00;;;;;21.48;57.93;100640.56;5027499;28;45515;-83
2023/07/01 03:42:58;;;;;;;;;5.00;5.00;;;;;21.42;57.81;100637.06;5022351;28;45414;-83
2023/07/01 03:45:23;;;;;;;;;4.00;3.00;;;;;21.45;58.50;100646.81;5032876;28;46033;-82
2023/07/01 03:47:49;;;;;;;;;4.33;3.67;;;;;21.49;58.43;100645.88;5022504;28;45561;-82
2023/07/01 03:50:15;;;;;;;;;4.00;4.00;;;;;21.44;59.08;100645.06;5028275;28;45480;-83
2023/07/01 03:52:41;;;;;;;;;3.00;3.00;;;;;21.36;58.66;100631.81;5018116;28;45316;-83
2023/07/01 03:55:11;;;;;;;;;4.00;4.00;;;;;21.45;58.09;100629.09;5031168;28;46477;-83
2023/07/01 03:57:37;;;;;;;;;5.00;4.33;;;;;21.47;57.87;100637.06;5017091;28;45440;-82
2023/07/01 04:00:08;;;;;;;;;4.00;4.00;;;;;21.47;58.38;100634.41;5026050;28;45600;-83
2023/07/01 04:02:37;;;;;;;;;4.33;3.33;;;;;21.43;58.14;100622.06;5023277;28;45462;-83
2023/07/01 04:05:09;;;;;;;;;5.33;4.00;;;;;21.48;57.40;100629.94;5032147;28;45969;-83
2023/07/01 04:07:39;;;;;;;;;4.33;4.00;;;;;21.48;57.58;100628.16;5023799;28;46097;-83
2023/07/01 04:10:05;;;;;;;;;5.00;4.00;;;;;21.40;57.56;100606.97;5025640;28;45482;-82
2023/07/01 04:12:32;;;;;;;;;4.00;4.00;;;;;21.36;57.69;100618.53;5037021;28;45361;-83
2023/07/01 04:14:59;;;;;;;;;4.00;3.67;;;;;21.44;57.46;100623.78;5016993;28;46039;-82
2023/07/01 04:17:24;;;;;;;;;5.00;4.00;;;;;21.41;57.85;100631.78;5023841;28;45908;-83
2023/07/01 04:19:50;;;;;;;;;4.00;3.00;;;;;21.40;58.38;100628.22;5025610;28;45348;-82
2023/07/01 04:22:15;;;;;;;;;5.00;4.00;;;;;21.40;58.26;100628.22;5017945;28;45376;-84
2023/07/01 04:24:41;;;;;;;;;5.00;4.67;;;;;21.25;58.88;100616.03;5035203;28;46161;-83
2023/07/01 04:27:06;;;;;;;;;4.00;3.33;;;;;21.31;58.50;100617.75;5031922;28;45446;-81
2023/07/01 04:29:32;;;;;;;;;4.67;4.00;;;;;21.37;58.46;100614.13;5024879;28;45593;-82
2023/07/01 04:31:57;;;;;;;;;3.67;3.67;;;;;21.40;58.15;100622.91;5031024;28;45342;-82
2023/07/01 04:34:23;;;;;;;;;5.33;4.00;;;;;21.28;58.40;100606.25;5018086;28;47112;-81
2023/07/01 04:36:48;;;;;;;;;3.00;3.00;;;;;21.38;58.58;100618.53;5030113;28;45355;-79
2023/07/01 04:39:14;;;;;;;;;3.67;3.67;;;;;21.38;58.35;100619.41;5017151;28;45399;-81
2023/07/01 04:41:40;;;;;;;;;4.00;3.00;;;;;21.35;58.13;100608.81;5030202;28;45363;-82
2023/07/01 04:44:05;;;;;;;;;4.00;4.00;;;;;21.33;58.59;100607.06;5017250;28;46921;-81
2023/07/01 04:46:32;;;;;;;;;5.00;3.67;;;;;21.34;58.54;100622.13;5030353;28;45402;-80
2023/07/01 04:48:59;;;;;;;;;3.33;3.00;;;;;21.32;58.82;100611.50;5016279;28;45747;-81
2023/07/01 04:51:25;;;;;;;;;3.00;3.00;;;;;21.39;57.80;100620.31;5018153;28;45542;-80
2023/07/01 04:53:51;;;;;;;;;3.00;3.00;;;;;21.40;58.07;100630.00;5025597;28;45388;-76
2023/07/01 04:56:17;;;;;;;;;4.00;2.33;;;;;21.41;58.09;100630.00;5020739;28;45467;-78
2023/07/01 04:58:42;;;;;;;;;3.33;3.33;;;;;21.34;58.17;100616.81;4995670;28;45482;-79
2023/07/01 05:01:08;;;;;;;;;3.67;3.67;;;;;21.36;58.19;100622.97;5013691;28;45439;-76
2023/07/01 05:03:33;;;;;;;;;4.00;4.00;;;;;21.44;58.29;100631.75;5031219;28;47754;-82
2023/07/01 05:05:59;;;;;;;;;1.00;1.00;;;;;21.37;57.91;100624.75;5018752;28;45969;-74
2023/07/01 05:08:24;;;;;;;;;3.67;3.67;;;;;21.36;58.20;100622.97;5031585;28;45460;-73
2023/07/01 05:10:50;;;;;;;;;3.00;3.00;;;;;21.33;57.94;100617.69;5016605;28;45453;-76
2023/07/01 05:13:15;;;;;;;;;3.67;3.33;;;;;21.39;58.05;100628.28;5027784;28;47408;-73
2023/07/01 05:15:41;;;;;;;;;4.00;4.00;;;;;21.35;58.30;100618.59;5020227;28;45398;-80
2023/07/01 05:18:07;;;;;;;;;4.00;4.00;;;;;21.36;58.00;100622.97;5018957;28;45398;-74
2023/07/01 05:20:33;;;;;;;;;4.00;4.00;;;;;21.41;57.92;100640.63;5028314;28;45412;-74
2023/07/01 05:22:58;;;;;;;;;2.00;2.00;;;;;21.34;58.44;100619.47;5026887;28;46200;-72
2023/07/01 05:25:24;;;;;;;;;4.00;3.00;;;;;21.36;58.01;100620.31;5031982;28;45430;-72
2023/07/01 05:27:49;;;;;;;;;4.00;3.00;;;;;21.40;57.86;100646.81;5019292;28;45473;-76
2023/07/01 05:30:15;;;;;;;;;3.67;3.00;;;;;21.41;58.42;100642.41;5028819;28;45437;-76
2023/07/01 05:32:40;;;;;;;;;3.33;3.00;;;;;21.33;58.72;100644.28;5003886;28;46931;-79
2023/07/01 05:35:06;;;;;;;;;5.00;4.67;;;;;21.36;58.57;100636.28;5006795;28;45456;-77
2023/07/01 05:37:32;;;;;;;;;3.00;3.00;;;;;21.41;58.39;100631.78;5017166;28;45616;-79
2023/07/01 05:39:57;;;;;;;;;6.33;5.00;;;;;21.42;58.57;100642.38;5028187;28;45622;-80
2023/07/01 05:42:23;;;;;;;;;5.00;4.00;;;;;21.34;58.64;100640.72;5025656;28;45300;-81
2023/07/01 05:44:48;;;;;;;;;5.00;5.00;;;;;21.32;58.55;100631.91;5020794;28;45552;-82
2023/07/01 05:47:14;;;;;;;;;3.00;2.00;;;;;21.36;58.61;100644.25;5031260;28;45354;-81
2023/07/01 05:49:39;;;;;;;;;3.33;3.00;;;;;21.33;58.45;100634.53;5014278;28;45613;-82
2023/07/01 05:52:05;;;;;;;;;4.33;4.33;;;;;21.40;58.73;100653.94;5014214;28;45720;-82
2023/07/01 05:54:31;;;;;;;;;5.33;5.00;;;;;21.38;58.68;100653.94;5017206;28;45423;-74
2023/07/01 05:56:58;;;;;;;;;4.00;4.00;;;;;21.39;58.52;100658.38;5002025;28;45309;-80
2023/07/01 05:59:23;;;;;;;;;3.00;3.00;;;;;21.31;58.50;100643.41;5019846;28;45564;-82
2023/07/01 06:01:49;;;;;;;;;4.00;3.67;;;;;21.32;59.08;100635.44;5027923;28;45319;-78
2023/07/01 06:04:14;;;;;;;;;4.00;3.67;;;;;21.41;58.75;100650.38;5025538;28;45491;-81
2023/07/01 06:06:40;;;;;;;;;2.67;2.67;;;;;21.43;58.59;100652.16;5019001;28;45381;-81
2023/07/01 06:09:08;;;;;;;;;4.00;3.67;;;;;21.39;59.05;100642.44;5018974;28;45626;-82
2023/07/01 06:11:34;;;;;;;;;3.00;3.00;;;;;21.45;59.19;100653.00;5020954;28;46884;-76
2023/07/01 06:14:00;;;;;;;;;3.00;3.00;;;;;21.45;58.83;100652.13;5009187;28;45514;-81
2023/07/01 06:16:25;;;;;;;;;4.67;4.00;;;;;21.41;58.96;100634.44;5017609;28;45509;-80
2023/07/01 06:18:51;;;;;;;;;3.67;3.33;;;;;21.44;59.49;100650.38;5013643;28;45340;-82
2023/07/01 06:21:16;;;;;;;;;2.00;2.00;;;;;21.38;59.56;100626.50;5007052;28;45514;-76
2023/07/01 06:23:42;;;;;;;;;3.00;3.00;;;;;21.49;59.57;100647.63;5009359;28;45467;-80
2023/07/01 06:26:07;;;;;;;;;4.00;4.00;;;;;21.46;59.54;100632.63;5029189;28;45718;-80
2023/07/01 06:28:33;;;;;;;;;3.00;3.00;;;;;21.52;59.76;100639.63;5017523;28;45521;-80
2023/07/01 06:30:59;;;;;;;;;4.00;3.00;;;;;21.56;59.81;100639.56;5010277;28;45584;-80
2023/07/01 06:33:24;;;;;;;;;4.00;3.00;;;;;21.60;59.17;100651.91;5012799;28;45545;-73
2023/07/01 06:35:50;;;;;;;;;3.33;3.00;;;;;21.58;59.34;100648.41;5015049;28;45518;-79
2023/07/01 06:38:15;;;;;;;;;4.00;4.00;;;;;21.71;59.55;100661.53;5017674;28;45295;-81
2023/07/01 06:40:41;;;;;;;;;3.00;3.00;;;;;21.67;59.39;100646.53;5016383;28;46127;-79
2023/07/01 06:43:06;;;;;;;;;3.00;3.00;;;;;21.77;59.46;100656.13;5003154;28;45550;-80
2023/07/01 06:45:32;;;;;;;;;3.67;3.00;;;;;21.82;59.15;100663.13;5020436;28;45359;-80
2023/07/01 06:47:59;;;;;;;;;4.00;4.00;;;;;21.88;58.95;100671.91;5017955;28;45435;-71
2023/07/01 06:50:25;;;;;;;;;10.67;6.00;;;;;21.88;59.04;100669.25;5017930;28;45422;-75
2023/07/01 06:52:50;;;;;;;;;4.00;4.00;;;;;21.93;58.68;100664.78;5017901;28;45364;-80
2023/07/01 06:55:17;;;;;;;;;3.67;3.67;;;;;22.00;59.07;100677.97;5020557;28;45503;-74
2023/07/01 06:57:43;;;;;;;;;6.00;5.33;;;;;21.92;58.26;100655.00;5018961;28;45438;-80
2023/07/01 07:00:12;;;;;;;;;5.67;4.00;;;;;21.98;58.83;100671.75;5017401;28;47664;-81
2023/07/01 07:02:38;;;;;;;;;6.67;5.33;;;;;22.05;58.38;100673.44;5027253;28;45894;-77
2023/07/01 07:05:08;;;;;;;;;4.67;4.67;;;;;21.84;58.32;100639.16;5019042;28;45581;-75
2023/07/01 07:07:34;;;;;;;;;5.33;5.00;;;;;22.05;58.76;100676.09;5008206;28;45534;-74
2023/07/01 07:09:59;;;;;;;;;3.00;3.00;;;;;22.22;58.24;100685.56;5008040;28;46358;-72
2023/07/01 07:12:26;;;;;;;;;3.67;3.67;;;;;22.20;58.04;100671.41;5031987;28;45569;-74
2023/07/01 07:14:52;;;;;;;;;7.67;7.00;;;;;22.27;58.38;100680.25;5017701;28;45559;-72
2023/07/01 07:17:18;;;;;;;;;4.00;3.67;;;;;22.28;57.87;100674.88;5026447;28;45467;-72
2023/07/01 07:19:44;;;;;;;;;6.67;6.00;;;;;22.32;57.97;100676.59;5013088;28;46955;-73
2023/07/01 07:22:09;;;;;;;;;7.00;4.00;;;;;22.38;57.72;100679.16;5016736;28;45336;-73
2023/07/01 07:24:35;;;;;;;;;7.00;6.00;;;;;22.32;57.68;100667.72;5016258;28;46274;-72
2023/07/01 07:27:01;;;;;;;;;4.67;4.00;;;;;22.36;57.16;100677.41;5016894;28;45244;-72
2023/07/01 07:29:28;;;;;;;;;5.00;5.00;;;;;22.32;57.64;100675.69;5025568;28;47673;-78
2023/07/01 07:31:55;;;;;;;;;5.00;4.00;;;;;22.35;57.52;100683.66;5023418;28;45819;-79
2023/07/01 07:34:21;;;;;;;;;7.67;5.33;;;;;22.28;57.73;100689.97;5019145;28;45341;-77
2023/07/01 07:36:46;;;;;;;;;5.00;5.00;;;;;22.29;57.52;100681.97;5037166;28;45430;-74
2023/07/01 07:39:13;;;;;;;;;5.00;5.00;;;;;22.28;57.97;100666.88;5027055;28;45564;-79
2023/07/01 07:41:42;;;;;;;;;8.00;6.00;;;;;22.30;57.85;100672.19;5019386;28;45450;-79
2023/07/01 07:44:07;;;;;;;;;6.00;6.00;;;;;22.48;57.53;100679.84;5030045;28;45481;-82
2023/07/01 07:46:34;;;;;;;;;6.33;6.33;;;;;22.65;56.43;100682.25;5017137;28;45407;-79
2023/07/01 07:48:59;;;;;;;;;5.33;4.67;;;;;22.79;56.72;100679.34;5022141;28;45965;-79
2023/07/01 07:51:25;;;;;;;;;7.67;6.67;;;;;22.91;56.35;100678.22;5017741;28;45416;-74
2023/07/01 07:53:51;;;;;;;;;7.00;7.00;;;;;22.97;56.00;100667.44;5018227;28;45494;-81
2023/07/01 07:56:17;;;;;;;;;8.33;6.33;;;;;23.18;55.60;100682.19;5034107;28;45498;-77
2023/07/01 07:58:42;;;;;;;;;7.00;6.00;;;;;23.23;54.97;100689.16;5023544;28;46192;-72
2023/07/01 08:01:08;;;;;;;;;7.00;5.67;;;;;23.35;55.46;100695.16;5015109;28;45457;-75
2023/07/01 08:03:33;;;;;;;;;6.33;4.67;;;;;23.45;54.88;100691.38;5016114;28;45550;-77
2023/07/01 08:05:59;;;;;;;;;5.00;4.00;;;;;23.59;54.09;100683.97;5017062;28;45395;-76
2023/07/01 08:08:25;;;;;;;;;6.00;5.00;;;;;23.55;54.28;100650.28;5017331;28;45838;-75
2023/07/01 08:10:50;;;;;;;;;7.00;6.33;;;;;23.89;54.02;100681.56;5015318;28;45486;-72
2023/07/01 08:13:16;;;;;;;;;9.00;6.67;;;;;23.91;53.91;100674.41;5016475;28;45313;-73
2023/07/01 08:15:42;;;;;;;;;7.00;6.33;;;;;24.13;53.57;100676.56;5016651;28;45313;-78
2023/07/01 08:18:08;;;;;;;;;13.00;11.00;;;;;24.22;53.14;100685.22;5015310;28;45378;-75
2023/07/01 08:20:34;;;;;;;;;7.33;6.00;;;;;24.27;52.48;100670.88;5014866;28;45417;-74
2023/07/01 08:23:00;;;;;;;;;6.00;5.67;;;;;24.28;52.48;100656.63;5016900;28;45456;-76
2023/07/01 08:25:25;;;;;;;;;7.33;7.00;;;;;24.41;52.56;100664.31;5015792;28;45621;-77
2023/07/01 08:27:51;;;;;;;;;4.00;4.00;;;;;24.47;51.84;100667.72;5032200;28;46269;-76
2023/07/01 08:30:17;;;;;;;;;6.00;5.33;;;;;24.54;52.35;100680.03;5029714;28;45509;-75
2023/07/01 08:32:42;;;;;;;;;6.00;6.00;;;;;24.49;52.20;100665.88;5016279;28;45554;-74
2023/07/01 08:35:09;;;;;;;;;5.67;5.00;;;;;24.50;52.22;100668.56;5020394;28;45502;-75
2023/07/01 08:37:34;;;;;;;;;6.67;5.00;;;;;24.48;52.64;100667.69;5015681;28;45604;-75
2023/07/01 08:40:00;;;;;;;;;5.33;5.00;;;;;24.48;52.76;100673.03;5020712;28;45640;-81
2023/07/01 08:42:34;;;;;;;;;6.67;6.67;;;;;24.55;52.74;100682.69;5016929;28;45468;-78
2023/07/01 08:45:02;;;;;;;;;5.33;4.00;;;;;24.61;52.10;100677.19;5017494;28;45633;-80
2023/07/01 08:47:29;;;;;;;;;16.33;16.33;;;;;24.73;51.78;100670.63;5028917;28;46291;-77
2023/07/01 08:49:58;;;;;;;;;10.00;8.33;;;;;24.79;51.31;100666.94;5019963;28;45504;-79
2023/07/01 08:52:29;;;;;;;;;7.33;6.33;;;;;24.67;51.38;100659.22;5022139;28;45576;-81
2023/07/01 08:54:55;;;;;;;;;12.33;12.00;;;;;24.79;51.33;100659.78;5040138;28;45490;-86
2023/07/01 08:57:20;;;;;;;;;6.67;4.00;;;;;24.92;51.03;100654.09;5030992;28;45308;-79
2023/07/01 08:59:47;;;;;;;;;6.00;5.67;;;;;24.92;51.33;100643.41;5032305;28;45539;-83
2023/07/01 09:02:13;;;;;;;;;6.00;5.00;;;;;25.05;51.22;100643.91;5025082;28;45372;-79
2023/07/01 09:04:39;;;;;;;;;5.67;4.67;;;;;25.22;51.03;100647.03;5016860;28;45438;-85
2023/07/01 09:07:05;;;;;;;;;7.33;6.33;;;;;25.37;50.91;100643.03;5034378;28;45442;-82
2023/07/01 09:09:31;;;;;;;;;8.67;8.33;;;;;25.52;50.61;100642.56;5034167;28;45524;-84
2023/07/01 09:11:56;;;;;;;;;6.67;6.00;;;;;25.63;49.93;100641.38;5027784;28;45409;-83
2023/07/01 09:14:22;;;;;;;;;6.00;5.67;;;;;25.72;49.96;100633.03;5016973;28;45401;-83
2023/07/01 09:16:47;;;;;;;;;7.00;6.00;;;;;25.80;50.37;100634.56;5016321;28;45497;-81
2023/07/01 09:19:16;;;;;;;;;6.00;6.00;;;;;25.70;49.45;100616.16;5015814;28;45270;-81
2023/07/01 09:21:43;;;;;;;;;8.00;7.00;;;;;25.99;50.17;100644.72;5017040;28;45787;-85
2023/07/01 09:24:10;;;;;;;;;9.67;8.67;;;;;26.11;49.77;100641.63;5017438;28;45485;-84
2023/07/01 09:26:36;;;;;;;;;14.00;13.33;;;;;26.17;48.99;100635.19;5019032;28;46607;-83
2023/07/01 09:29:10;;;;;;;;;7.00;6.00;;;;;26.25;49.57;100656.38;5016855;28;45309;-76
2023/07/01 09:31:47;;;;;;;;;7.00;6.00;;;;;26.33;49.20;100655.19;5019408;28;45339;-87
2023/07/01 09:34:13;;;;;;;;;7.00;7.00;;;;;26.19;49.15;100636.91;5019182;28;45240;-88
2023/07/01 09:36:38;;;;;;;;;5.00;4.33;;;;;26.32;49.49;100650.75;5018864;28;46422;-85
2023/07/01 09:39:05;;;;;;;;;4.00;4.00;;;;;26.39;49.28;100654.09;5020263;28;46017;-87
2023/07/01 09:41:31;;;;;;;;;6.00;5.00;;;;;26.39;49.29;100646.06;5039354;28;45810;-85
2023/07/01 09:44:00;;;;;;;;;4.33;3.33;;;;;26.33;49.47;100644.47;5030986;28;45886;-82
2023/07/01 09:46:46;;;;;;;;;6.33;5.00;;;;;26.39;49.04;100649.59;5031425;28;45569;-89
2023/07/01 09:49:12;;;;;;;;;4.33;3.33;;;;;26.17;49.35;100616.47;5038549;28;45457;-87
2023/07/01 09:51:50;;;;;;;;;8.00;6.00;;;;;26.27;49.75;100649.16;5031279;28;46062;-82
2023/07/01 09:54:26;;;;;;;;;4.00;4.00;;;;;26.08;50.01;100638.16;5019245;28;45397;-88
2023/07/01 09:56:53;;;;;;;;;6.33;5.67;;;;;26.18;50.54;100653.91;5036826;28;45684;-83
2023/07/01 09:59:20;;;;;;;;;5.67;4.67;;;;;26.13;49.99;100641.59;5032285;28;45504;-82
2023/07/01 10:01:47;;;;;;;;;4.00;4.00;;;;;26.07;50.13;100644.47;5029579;28;45295;-83
2023/07/01 10:04:12;;;;;;;;;4.00;4.00;;;;;25.96;50.80;100639.44;5037664;28;45422;-86
2023/07/01 10:06:42;;;;;;;;;5.67;4.67;;;;;26.07;50.66;100655.19;5021436;28;45502;-88
2023/07/01 10:09:07;;;;;;;;;4.00;4.00;;;;;26.07;50.57;100631.09;5037961;28;45435;-89
2023/07/01 10:11:35;;;;;;;;;4.67;3.00;;;;;26.09;51.09;100630.09;5027893;28;45318;-89
2023/07/01 10:14:04;;;;;;;;;7.33;4.00;;;;;26.27;50.35;100633.97;5019751;28;45482;-80
2023/07/01 10:16:30;;;;;;;;;5.67;4.00;;;;;26.25;50.57;100627.78;5017394;28;46302;-89
2023/07/01 10:18:55;;;;;;;;;10.67;9.67;;;;;26.44;50.26;100641.44;5010177;28;45722;-86
2023/07/01 10:21:24;;;;;;;;;6.67;6.67;;;;;26.65;50.14;100644.31;5013993;28;45386;-78
2023/07/01 10:23:53;;;;;;;;;7.00;5.00;;;;;26.79;49.86;100642.88;5019014;28;45577;-77
2023/07/01 10:26:31;;;;;;;;;6.67;6.33;;;;;26.85;49.85;100643.59;5017141;28;46500;-76
2023/07/01 10:28:57;;;;;;;;;5.67;5.67;;;;;26.85;50.09;100648.97;5022067;28;45739;-83
2023/07/01 10:31:23;;;;;;;;;5.00;5.00;;;;;26.63;50.54;100606.00;5016430;28;45329;-83
2023/07/01 10:33:50;;;;;;;;;6.00;5.33;;;;;26.87;50.29;100631.03;5026598;28;45344;-85
2023/07/01 10:36:19;;;;;;;;;6.00;5.67;;;;;26.93;49.88;100641.53;5019615;28;45429;-86
2023/07/01 10:38:45;;;;;;;;;5.00;4.67;;;;;26.88;49.78;100641.69;5022051;28;45433;-81
2023/07/01 10:41:11;;;;;;;;;4.00;4.00;;;;;26.64;49.97;100623.81;5018952;28;45424;-85
2023/07/01 10:43:38;;;;;;;;;6.33;5.00;;;;;26.48;50.67;100639.50;5017665;28;45567;-86
2023/07/01 10:46:06;;;;;;;;;6.00;5.00;;;;;26.45;50.88;100628.91;5009578;28;45496;-89
2023/07/01 10:48:32;;;;;;;;;4.00;4.00;;;;;26.51;51.00;100628.69;5013247;28;45438;-88
2023/07/01 10:51:06;;;;;;;;;5.00;5.00;;;;;26.56;50.87;100637.44;5017461;28;45538;-85
2023/07/01 10:53:51;;;;;;;;;4.67;4.00;;;;;26.32;51.07;100617.72;5008028;28;45531;-87
2023/07/01 10:56:17;;;;;;;;;6.33;5.33;;;;;26.44;51.41;100630.72;5027856;28;45514;-82
2023/07/01 10:58:43;;;;;;;;;10.00;9.00;;;;;26.41;51.65;100641.53;5022746;28;45310;-83
2023/07/01 11:01:41;;;;;;;;;7.67;7.67;;;;;26.45;51.87;100643.16;5018214;28;46542;-86
2023/07/01 11:04:07;;;;;;;;;6.33;4.33;;;;;26.39;51.56;100636.22;5009183;28;45477;-85
2023/07/01 11:06:54;;;;;;;;;5.00;4.00;;;;;26.44;51.65;100638.75;5029257;28;45300;-86
2023/07/01 11:09:35;;;;;;;;;7.00;6.00;;;;;26.46;52.06;100655.66;5025376;28;45315;-88
2023/07/01 11:12:03;;;;;;;;;4.00;3.33;;;;;26.36;52.39;100652.41;5038847;28;45245;-89
2023/07/01 11:14:34;;;;;;;;;6.00;6.00;;;;;26.34;52.25;100626.59;5035924;28;45671;-89
2023/07/01 11:17:13;;;;;;;;;5.00;5.00;;;;;26.26;51.82;100642.03;5031944;28;45633;-83
2023/07/01 11:19:39;;;;;;;;;12.00;11.00;;;;;26.34;51.83;100639.97;5041848;28;44694;-76
2023/07/01 11:22:05;;;;;;;;;5.00;5.00;;;;;26.39;51.75;100640.72;5055831;28;45225;-82
2023/07/01 11:24:32;;;;;;;;;5.33;5.00;;;;;26.37;51.58;100634.53;5061840;28;45423;-84
2023/07/01 11:27:07;;;;;;;;;6.00;6.00;;;;;26.41;51.81;100649.56;5044482;28;45117;-75